Time;durP1;ratioP1;P1;durP2;ratioP2;P2;SDS_P1;SDS_P2;PMS_P1;PMS_P2;Temp;Humidity;BMP_temperature;BMP_pressure;BME280_temperature;BME280_humidity;BME280_pressure;Samples;Min_cycle;Max_cycle;Signal;HPM_P1;HPM_P2
2022/08/26 00:01:55;;;;;;;7.03;3.70;;;;;;;26.84;55.00;100491.25;5011271;28;20496;-73
2022/08/26 00:04:24;;;;;;;7.05;4.03;;;;;;;26.82;55.22;100493.66;5011649;28;20046;-73
2022/08/26 00:06:54;;;;;;;4.13;3.33;;;;;;;26.90;55.71;100488.88;5011335;28;20046;-72
2022/08/26 00:09:24;;;;;;;4.50;3.20;;;;;;;26.81;55.19;100491.25;5011303;28;20053;-72
2022/08/26 00:11:53;;;;;;;4.20;3.80;;;;;;;26.89;54.67;100486.47;5011613;28;20421;-73
2022/08/26 00:14:22;;;;;;;3.65;3.10;;;;;;;26.87;54.81;100489.66;5011655;28;20042;-73
2022/08/26 00:16:56;;;;;;;3.83;2.95;;;;;;;26.87;54.60;100486.06;5027679;28;20389;-73
2022/08/26 00:19:24;;;;;;;4.05;3.40;;;;;;;26.88;54.60;100482.06;5031000;28;20050;-73
2022/08/26 00:21:53;;;;;;;4.55;3.92;;;;;;;26.82;55.08;100484.44;5030941;28;20053;-72
2022/08/26 00:24:22;;;;;;;5.97;3.60;;;;;;;26.78;55.41;100481.59;5016540;28;20054;-73
2022/08/26 00:26:50;;;;;;;6.05;3.42;;;;;;;26.75;55.60;100482.41;5019622;28;20064;-73
2022/08/26 00:29:19;;;;;;;4.57;3.30;;;;;;;26.68;55.85;100482.34;5029777;28;20400;-72
2022/08/26 00:31:48;;;;;;;4.25;3.05;;;;;;;26.79;55.31;100480.41;5031639;28;20053;-73
2022/08/26 00:34:16;;;;;;;5.60;3.83;;;;;;;26.76;55.53;100478.41;5031101;28;20056;-73
2022/08/26 00:36:46;;;;;;;6.88;3.65;;;;;;;26.77;55.38;100491.22;5030793;28;20046;-73
2022/08/26 00:39:19;;;;;;;4.28;3.45;;;;;;;26.79;55.57;100483.22;5031184;28;20044;-73
2022/08/26 00:41:48;;;;;;;3.85;3.45;;;;;;;26.80;56.49;100487.66;5031164;28;20068;-73
2022/08/26 00:44:18;;;;;;;4.30;3.90;;;;;;;26.75;56.83;100488.03;5031259;28;20053;-73
2022/08/26 00:47:00;;;;;;;5.50;3.70;;;;;;;26.67;55.89;100475.13;5031130;28;20065;-73
2022/08/26 00:49:46;;;;;;;5.15;3.92;;;;;;;26.72;55.90;100471.97;5031280;28;20057;-73
2022/08/26 00:52:18;;;;;;;5.63;3.55;;;;;;;26.86;56.15;100471.22;5031415;28;20483;-73
2022/08/26 00:55:01;;;;;;;3.67;3.20;;;;;;;26.85;55.92;100472.41;5033051;28;20053;-73
2022/08/26 00:57:30;;;;;;;4.35;3.33;;;;;;;26.93;54.80;100473.28;5034162;28;20045;-73
2022/08/26 01:00:00;;;;;;;3.83;3.38;;;;;;;26.93;54.64;100470.47;5034542;28;20050;-73
2022/08/26 01:02:29;;;;;;;4.57;3.15;;;;;;;26.92;54.79;100480.06;5034112;28;20045;-73
2022/08/26 01:05:00;;;;;;;6.55;3.22;;;;;;;26.89;55.98;100476.06;5034049;28;20057;-73
2022/08/26 01:07:31;;;;;;;7.60;3.40;;;;;;;26.89;56.00;100466.81;5034643;28;20065;-73
2022/08/26 01:10:08;;;;;;;7.05;3.67;;;;;;;26.87;56.63;100466.41;5034387;28;20045;-73
2022/08/26 01:12:41;;;;;;;4.55;2.83;;;;;;;26.91;56.09;100470.03;5034883;28;20431;-73
2022/08/26 01:15:14;;;;;;;3.60;3.30;;;;;;;26.93;55.35;100464.88;5034188;28;20050;-73
2022/08/26 01:17:42;;;;;;;3.63;2.97;;;;;;;26.88;55.43;100468.03;5033820;28;20049;-73
2022/08/26 01:20:18;;;;;;;4.60;3.15;;;;;;;26.89;55.73;100455.59;5033507;28;20045;-73
2022/08/26 01:23:01;;;;;;;4.25;3.38;;;;;;;26.88;55.66;100451.97;5034120;28;20048;-73
2022/08/26 01:25:32;;;;;;;;;;;;;;;26.93;55.30;100448.81;5034047;28;20064;-73
2022/08/26 01:28:05;;;;;;;4.90;3.28;;;;;;;27.00;55.16;100448.03;5034396;28;19936;-73
2022/08/26 01:30:35;;;;;;;3.85;3.42;;;;;;;26.90;56.08;100445.97;5034223;28;20053;-73
2022/08/26 01:33:09;;;;;;;4.22;3.80;;;;;;;26.91;56.28;100441.94;5033920;28;20052;-73
2022/08/26 01:35:38;;;;;;;3.88;3.47;;;;;;;26.99;54.81;100434.38;5034049;28;20057;-73
2022/08/26 01:38:10;;;;;;;4.78;3.63;;;;;;;26.94;56.06;100441.19;5033942;28;20049;-73
2022/08/26 01:40:41;;;;;;;5.93;3.25;;;;;;;27.02;55.02;100447.63;5033433;28;20049;-73
2022/08/26 01:43:16;;;;;;;4.32;3.28;;;;;;;26.94;55.59;100436.38;5034011;28;20053;-73
2022/08/26 01:45:47;;;;;;;4.68;3.22;;;;;;;26.84;54.46;100442.75;5033556;28;20053;-73
2022/08/26 01:48:19;;;;;;;3.53;3.22;;;;;;;26.92;55.41;100435.16;5032144;28;20411;-73
2022/08/26 01:50:48;;;;;;;3.20;2.90;;;;;;;26.81;54.38;100435.91;5033406;28;20057;-73
2022/08/26 01:53:18;;;;;;;3.33;2.92;;;;;;;26.89;54.13;100442.38;5034239;28;20045;-73
2022/08/26 01:55:51;;;;;;;6.22;3.92;;;;;;;26.83;55.02;100436.31;5033589;28;20049;-73
2022/08/26 01:58:42;;;;;;;6.47;3.25;;;;;;;26.86;54.75;100442.31;5033678;28;20392;-73
2022/08/26 02:01:10;;;;;;;4.18;3.25;;;;;;;26.78;55.07;100438.72;5033237;28;20049;-73
2022/08/26 02:03:50;;;;;;;3.63;2.90;;;;;;;26.97;54.10;100443.19;5033456;28;20500;-73
2022/08/26 02:06:18;;;;;;;4.00;2.85;;;;;;;26.95;54.53;100440.00;5032717;28;20057;-73
2022/08/26 02:08:49;;;;;;;3.38;2.75;;;;;;;27.09;53.64;100442.81;5031686;28;20046;-73
2022/08/26 02:11:17;;;;;;;2.78;2.53;;;;;;;27.06;53.25;100438.03;5033627;28;20053;-73
2022/08/26 02:13:54;;;;;;;4.97;3.13;;;;;;;26.99;54.99;100440.81;5033222;28;20049;-73
2022/08/26 02:16:24;;;;;;;9.57;3.40;;;;;;;26.87;55.85;100447.56;5033306;28;20056;-73
2022/08/26 02:18:54;;;;;;;3.72;2.95;;;;;;;26.79;56.25;100443.13;5033144;28;20050;-73
2022/08/26 02:21:22;;;;;;;6.15;3.67;;;;;;;26.75;56.75;100445.94;5032898;28;20068;-73
2022/08/26 02:23:52;;;;;;;3.67;3.38;;;;;;;26.83;56.92;100436.31;5033062;28;20057;-72
2022/08/26 02:26:26;;;;;;;5.72;3.60;;;;;;;26.90;56.81;100434.72;5032793;28;20049;-72
2022/08/26 02:29:15;;;;;;;5.32;3.72;;;;;;;26.77;57.23;100439.88;5033209;28;20049;-73
2022/08/26 02:31:43;;;;;;;6.30;3.83;;;;;;;26.73;57.94;100436.28;5033081;28;20061;-73
2022/08/26 02:34:14;;;;;;;4.55;3.70;;;;;;;26.65;57.46;100432.66;5032882;28;20041;-73
2022/08/26 02:36:42;;;;;;;5.50;4.13;;;;;;;26.59;57.32;100437.03;5032772;28;20072;-73
2022/08/26 02:39:11;;;;;;;4.35;3.60;;;;;;;26.40;58.15;100431.31;5033004;28;20045;-73
2022/08/26 02:41:42;;;;;;;5.60;4.18;;;;;;;26.34;58.26;100430.09;5032609;28;20052;-73
2022/08/26 02:44:12;;;;;;;8.20;4.28;;;;;;;26.32;58.46;100434.47;5033167;28;20048;-73
2022/08/26 02:46:40;;;;;;;6.25;4.15;;;;;;;26.15;58.96;100428.38;5032541;28;20057;-73
2022/08/26 02:49:15;;;;;;;4.00;3.63;;;;;;;26.10;59.23;100425.94;5014920;28;20057;-73
2022/08/26 02:51:44;;;;;;;7.70;4.30;;;;;;;26.06;59.82;100423.13;5031233;28;20045;-73
2022/08/26 02:54:12;;;;;;;10.93;4.38;;;;;;;26.02;60.15;100425.09;5027145;28;20384;-73
2022/08/26 02:56:41;;;;;;;4.10;3.42;;;;;;;26.05;60.16;100423.50;5020500;28;20427;-73
2022/08/26 02:59:11;;;;;;;6.78;4.03;;;;;;;26.07;59.97;100423.91;5032529;28;20511;-73
2022/08/26 03:01:39;;;;;;;7.82;4.05;;;;;;;26.04;60.11;100411.47;5032763;28;20042;-73
2022/08/26 03:04:10;;;;;;;4.75;3.85;;;;;;;25.97;60.67;100417.84;5032286;28;20052;-73
2022/08/26 03:06:38;;;;;;;7.30;4.35;;;;;;;25.96;59.77;100407.81;5031951;28;20056;-73
2022/08/26 03:09:08;;;;;;;4.53;3.50;;;;;;;25.90;60.13;100412.19;5032198;28;20049;-73
2022/08/26 03:11:46;;;;;;;4.47;4.05;;;;;;;25.96;60.91;100407.81;5032007;28;20048;-73
2022/08/26 03:14:14;;;;;;;5.32;3.83;;;;;;;25.91;60.71;100413.81;5032268;28;20053;-73
2022/08/26 03:16:42;;;;;;;5.88;4.35;;;;;;;25.97;60.41;100415.03;5031235;28;20076;-73
2022/08/26 03:19:16;;;;;;;5.47;4.30;;;;;;;25.86;60.61;100408.56;5033053;28;20500;-74
2022/08/26 03:21:46;;;;;;;6.13;4.10;;;;;;;25.91;60.53;100408.19;5031984;28;20041;-73
2022/08/26 03:24:14;;;;;;;4.63;3.80;;;;;;;25.96;60.52;100405.00;5031550;28;20045;-73
2022/08/26 03:26:43;;;;;;;6.32;3.95;;;;;;;25.91;60.90;100402.59;5032195;28;20061;-73
2022/08/26 03:32:07;;;;;;;5.15;3.88;;;;;;;25.92;60.70;100395.78;5011860;28;20058;-73
2022/08/26 03:34:36;;;;;;;8.63;3.83;;;;;;;25.93;60.27;100400.19;5011939;28;20424;-73
2022/08/26 03:37:05;;;;;;;6.03;3.70;;;;;;;25.95;60.51;100397.78;5011897;28;20057;-73
2022/08/26 03:39:33;;;;;;;4.50;3.72;;;;;;;25.93;60.54;100394.59;5011567;28;20049;-73
2022/08/26 03:42:01;;;;;;;4.90;4.35;;;;;;;26.08;60.43;100395.47;5011496;28;20050;-73
2022/08/26 03:44:30;;;;;;;4.20;3.80;;;;;;;26.05;59.96;100392.66;5011910;28;20057;-73
2022/08/26 03:46:59;;;;;;;4.93;3.63;;;;;;;25.95;60.49;100385.78;4996471;28;20046;-73
2022/08/26 03:49:30;;;;;;;4.88;4.15;;;;;;;25.81;61.31;100398.50;5007196;28;20041;-73
2022/08/26 03:51:58;;;;;;;4.57;3.63;;;;;;;25.79;61.60;100414.13;5010243;28;20118;-73
2022/08/26 03:54:26;;;;;;;7.90;4.50;;;;;;;25.75;61.69;100402.88;5006864;28;20072;-73
2022/08/26 03:56:54;;;;;;;5.75;4.10;;;;;;;25.66;62.08;100399.59;5002291;28;20053;-73
2022/08/26 03:59:23;;;;;;;6.47;4.47;;;;;;;25.63;61.83;100404.81;5007706;28;20045;-73
2022/08/26 04:01:51;;;;;;;5.78;4.22;;;;;;;25.57;62.42;100399.94;5011632;28;20041;-73
2022/08/26 04:04:19;;;;;;;6.28;4.35;;;;;;;25.59;62.36;100398.38;5011565;28;20401;-73
2022/08/26 04:06:57;;;;;;;6.45;4.18;;;;;;;25.57;62.26;100403.53;5011511;28;20057;-73
2022/08/26 04:09:26;;;;;;;8.75;4.43;;;;;;;25.50;62.64;100406.25;5011302;28;20058;-73
2022/08/26 04:11:54;;;;;;;6.40;4.43;;;;;;;25.57;62.09;100402.75;5011266;28;20053;-73
2022/08/26 04:14:25;;;;;;;6.55;4.18;;;;;;;25.59;62.46;100403.97;5011532;28;20505;-73
2022/08/26 04:16:55;;;;;;;6.47;4.50;;;;;;;25.40;62.81;100398.59;5027412;28;20396;-73
2022/08/26 04:19:24;;;;;;;6.47;4.07;;;;;;;25.40;62.80;100402.16;5031308;28;20046;-74
2022/08/26 04:21:52;;;;;;;4.93;4.00;;;;;;;25.37;62.62;100400.16;5031344;28;20483;-73
2022/08/26 04:24:23;;;;;;;4.85;4.10;;;;;;;25.41;63.03;100400.97;5031229;28;20054;-74
2022/08/26 04:26:51;;;;;;;4.55;3.92;;;;;;;25.40;62.99;100401.38;5021104;28;20054;-74
2022/08/26 04:29:22;;;;;;;4.38;3.42;;;;;;;25.62;62.13;100391.19;5015377;28;20057;-77
2022/08/26 04:31:53;;;;;;;5.15;3.70;;;;;;;26.32;60.12;100398.03;4984194;28;20054;-78
2022/08/26 04:34:24;;;;;;;6.38;3.60;;;;;;;26.49;58.89;100402.91;4998516;28;20493;-78
2022/08/26 04:36:56;;;;;;;4.75;4.00;;;;;;;26.76;57.88;100399.81;4982520;28;20034;-78
2022/08/26 04:39:25;;;;;;;6.55;3.92;;;;;;;26.81;56.82;100402.22;4981082;28;20049;-78
2022/08/26 04:41:54;;;;;;;4.28;3.85;;;;;;;26.54;57.25;100399.72;5011914;28;20477;-78
2022/08/26 04:44:27;;;;;;;3.78;3.30;;;;;;;26.84;56.69;100401.44;4993569;28;20057;-77
2022/08/26 04:46:56;;;;;;;4.47;3.88;;;;;;;26.74;56.87;100407.03;5002364;28;20050;-78
2022/08/26 04:49:24;;;;;;;4.10;3.25;;;;;;;26.58;57.23;100404.56;4981314;28;20485;-78
2022/08/26 04:51:54;;;;;;;5.45;3.40;;;;;;;26.80;57.04;100406.25;4997854;28;20049;-78
2022/08/26 04:54:22;;;;;;;3.50;3.20;;;;;;;26.89;56.56;100405.88;4997889;28;20050;-78
2022/08/26 04:56:51;;;;;;;5.38;3.50;;;;;;;26.59;57.40;100415.41;4997453;28;20050;-78
2022/08/26 04:59:19;;;;;;;4.22;3.30;;;;;;;26.60;57.37;100400.16;4997365;28;20042;-77
2022/08/26 05:01:50;;;;;;;4.18;3.78;;;;;;;26.62;57.50;100399.75;4991567;28;20057;-77
2022/08/26 05:04:19;;;;;;;6.10;3.85;;;;;;;26.41;58.02;100407.72;4992628;28;20056;-78
2022/08/26 05:06:49;;;;;;;4.43;3.67;;;;;;;26.60;57.64;100404.97;5013587;28;20042;-78
2022/08/26 05:09:18;;;;;;;8.23;3.60;;;;;;;26.54;57.27;100399.72;5014509;28;20042;-77
2022/08/26 05:11:47;;;;;;;5.57;3.40;;;;;;;26.75;57.17;100405.81;5022791;28;20056;-77
2022/08/26 05:14:21;;;;;;;7.28;3.33;;;;;;;26.79;57.16;100399.00;5014689;28;20042;-78
2022/08/26 05:16:51;;;;;;;5.15;3.60;;;;;;;27.10;56.14;100402.34;5028310;28;20049;-77
2022/08/26 05:19:18;;;;;;;7.25;3.67;;;;;;;27.05;56.76;100408.34;5022339;28;20121;-77
2022/08/26 05:21:48;;;;;;;3.50;3.00;;;;;;;26.91;56.85;100408.25;5034366;28;20049;-77
2022/08/26 05:24:16;;;;;;;4.85;3.35;;;;;;;26.98;56.69;100413.94;5032536;28;20042;-77
2022/08/26 05:26:45;;;;;;;6.10;3.00;;;;;;;27.26;56.00;100417.97;5013572;28;20054;-78
2022/08/26 05:29:13;;;;;;;5.75;3.67;;;;;;;27.42;55.41;100420.41;5020750;28;20045;-77
2022/08/26 05:31:41;;;;;;;3.63;3.28;;;;;;;27.41;55.29;100424.41;5022235;28;20034;-78
2022/08/26 05:34:09;;;;;;;5.18;3.83;;;;;;;27.43;55.61;100424.84;5032497;28;20049;-77
2022/08/26 05:36:38;;;;;;;4.68;3.50;;;;;;;27.50;56.05;100426.81;5023367;28;20408;-78
2022/08/26 05:39:07;;;;;;;3.95;3.47;;;;;;;27.66;55.23;100420.81;5021199;28;20515;-78
2022/08/26 05:41:40;;;;;;;6.13;3.40;;;;;;;27.46;55.98;100421.22;5013120;28;20045;-77
2022/08/26 05:44:12;;;;;;;5.43;3.72;;;;;;;27.40;55.68;100420.00;5013271;28;20038;-77
2022/08/26 05:46:43;;;;;;;5.55;3.75;;;;;;;27.27;55.91;100428.00;5010197;28;20378;-78
2022/08/26 05:49:13;;;;;;;4.05;3.35;;;;;;;27.35;55.52;100432.44;5014097;28;20064;-78
2022/08/26 05:51:45;;;;;;;4.30;3.60;;;;;;;27.32;55.28;100426.84;5014027;28;20058;-77
2022/08/26 05:54:15;;;;;;;4.82;3.53;;;;;;;27.49;54.89;100426.03;5013996;28;20057;-77
2022/08/26 05:56:50;;;;;;;7.18;3.58;;;;;;;27.49;55.23;100430.84;5013880;28;20049;-77
2022/08/26 05:59:19;;;;;;;4.68;3.42;;;;;;;27.75;54.66;100428.84;5013914;28;20397;-77
2022/08/26 06:01:53;;;;;;;4.80;3.38;;;;;;;27.89;54.16;100426.03;5013513;28;20046;-77
2022/08/26 06:04:24;;;;;;;5.47;3.58;;;;;;;28.04;53.52;100431.63;5013532;28;20052;-77
2022/08/26 06:06:54;;;;;;;4.28;3.38;;;;;;;28.08;53.21;100435.25;5013655;28;20046;-77
2022/08/26 06:09:22;;;;;;;5.97;3.45;;;;;;;28.03;54.17;100441.28;5013080;28;20735;-76
2022/08/26 06:11:50;;;;;;;4.18;3.78;;;;;;;28.25;53.66;100441.28;5013201;28;20050;-77
2022/08/26 06:14:20;;;;;;;4.95;3.85;;;;;;;28.27;53.11;100444.47;5015356;28;20038;-77
2022/08/26 06:16:48;;;;;;;5.32;3.92;;;;;;;28.23;53.42;100446.47;5016996;28;20053;-77
2022/08/26 06:19:16;;;;;;;3.78;3.40;;;;;;;28.19;52.60;100451.31;5014665;28;20408;-77
2022/08/26 06:21:46;;;;;;;3.33;3.03;;;;;;;28.36;52.95;100450.47;5024869;28;20042;-77
2022/08/26 06:27:12;;;;;;;4.95;3.38;;;;;;;28.63;52.21;100449.97;5009911;28;20038;-78
2022/08/26 06:29:42;;;;;;;5.20;3.17;;;;;;;28.64;51.56;100448.75;5003256;28;20046;-78
2022/08/26 06:32:10;;;;;;;5.63;3.17;;;;;;;28.64;52.21;100454.38;5005792;28;20050;-77
2022/08/26 06:34:38;;;;;;;3.53;3.20;;;;;;;28.61;51.81;100460.03;5009457;28;20042;-78
2022/08/26 06:37:07;;;;;;;4.65;3.35;;;;;;;28.90;51.13;100454.31;5010311;28;20408;-78
2022/08/26 06:39:35;;;;;;;4.60;3.35;;;;;;;29.01;50.70;100451.41;5012052;28;20041;-77
2022/08/26 06:42:08;;;;;;;3.20;2.90;;;;;;;29.08;50.65;100457.81;5010414;28;20397;-78
2022/08/26 06:44:37;;;;;;;7.28;3.70;;;;;;;29.15;50.17;100456.97;5008795;28;20050;-77
2022/08/26 06:47:07;;;;;;;4.65;2.55;;;;;;;29.31;49.69;100466.94;5006780;28;20045;-78
2022/08/26 06:49:36;;;;;;;5.25;3.35;;;;;;;29.40;49.57;100461.66;5008200;28;20053;-78
2022/08/26 06:52:03;;;;;;;4.28;3.50;;;;;;;29.28;49.46;100453.69;5004851;28;20049;-78
2022/08/26 06:54:31;;;;;;;3.42;3.13;;;;;;;29.41;49.16;100448.38;5005132;28;20042;-78
2022/08/26 06:56:59;;;;;;;6.78;3.50;;;;;;;29.46;49.61;100443.06;5009637;28;20382;-78
2022/08/26 06:59:29;;;;;;;4.10;3.03;;;;;;;29.35;48.57;100443.16;5008180;28;20042;-78
2022/08/26 07:02:07;;;;;;;9.55;3.55;;;;;;;29.37;49.25;100448.38;5006453;28;20484;-77
2022/08/26 07:04:40;;;;;;;6.35;3.40;;;;;;;29.55;49.20;100451.09;5003236;28;20046;-73
2022/08/26 07:07:13;;;;;;;5.10;2.88;;;;;;;29.78;47.82;100447.66;5000865;28;20065;-74
2022/08/26 07:09:40;;;;;;;3.97;3.38;;;;;;;30.08;46.24;100453.03;5011327;28;20045;-74
2022/08/26 07:12:09;;;;;;;4.82;2.95;;;;;;;30.08;46.87;100451.00;5011898;28;20045;-74
2022/08/26 07:14:37;;;;;;;3.60;2.90;;;;;;;30.07;47.32;100459.88;5010288;28;20060;-74
2022/08/26 07:17:05;;;;;;;3.72;3.10;;;;;;;30.00;47.04;100450.28;5028943;28;20064;-74
2022/08/26 07:19:38;;;;;;;5.23;3.53;;;;;;;30.50;46.00;100461.47;5032148;28;20056;-74
2022/08/26 07:22:07;;;;;;;5.50;3.03;;;;;;;30.58;44.42;100460.97;5031521;28;20049;-74
2022/08/26 07:24:41;;;;;;;4.93;3.03;;;;;;;30.59;44.86;100458.94;5031580;28;20049;-74
2022/08/26 07:27:13;;;;;;;4.32;3.25;;;;;;;31.17;43.59;100468.72;5028478;28;20054;-74
2022/08/26 07:29:42;;;;;;;5.93;3.60;;;;;;;31.42;42.10;100461.91;5020603;28;20058;-74
2022/08/26 07:32:13;;;;;;;4.65;3.33;;;;;;;30.86;42.56;100457.41;5031666;28;20412;-74
2022/08/26 07:34:42;;;;;;;4.32;3.38;;;;;;;31.04;43.73;100460.78;5031890;28;20500;-74
2022/08/26 07:37:10;;;;;;;5.40;3.45;;;;;;;30.79;42.72;100459.09;5031931;28;20053;-74
2022/08/26 07:39:40;;;;;;;4.03;3.40;;;;;;;31.16;41.42;100467.09;5031534;28;20049;-75
2022/08/26 07:42:12;;;;;;;3.95;3.40;;;;;;;31.10;42.32;100466.78;5031181;28;20061;-74
2022/08/26 07:44:41;;;;;;;4.47;3.60;;;;;;;31.27;42.35;100458.47;5031411;28;20041;-74
2022/08/26 07:47:11;;;;;;;10.52;3.90;;;;;;;31.36;41.35;100464.41;5031502;28;20049;-74
2022/08/26 07:49:54;;;;;;;5.38;3.33;;;;;;;31.47;41.54;100467.06;5032214;28;20068;-73
2022/08/26 07:52:25;;;;;;;5.10;3.47;;;;;;;31.44;40.72;100465.09;5031395;28;20057;-74
2022/08/26 07:54:56;;;;;;;4.68;3.55;;;;;;;31.11;40.64;100460.69;5031821;28;20050;-74
2022/08/26 07:57:26;;;;;;;5.22;3.58;;;;;;;30.84;42.40;100469.16;5031494;28;20056;-74
2022/08/26 07:59:55;;;;;;;5.72;3.70;;;;;;;31.34;40.64;100464.03;5017993;28;20046;-76
2022/08/26 08:02:24;;;;;;;4.70;3.42;;;;;;;31.60;40.87;100468.06;5031582;28;20057;-74
2022/08/26 08:04:53;;;;;;;3.97;3.25;;;;;;;31.68;40.63;100460.25;5035015;28;20051;-74
2022/08/26 08:07:22;;;;;;;4.65;3.58;;;;;;;32.09;40.10;100461.16;5035525;28;20053;-74
2022/08/26 08:10:06;;;;;;;5.38;3.13;;;;;;;32.11;39.44;100457.91;5021229;28;20057;-75
2022/08/26 08:12:39;;;;;;;4.90;3.10;;;;;;;31.70;40.79;100463.44;5035327;28;20045;-74
2022/08/26 08:15:10;;;;;;;4.68;3.03;;;;;;;32.15;41.06;100453.78;5034826;28;20393;-74
2022/08/26 08:17:42;;;;;;;4.25;3.03;;;;;;;32.39;39.30;100448.06;5035463;28;20076;-74
2022/08/26 08:20:12;;;;;;;3.63;3.15;;;;;;;32.54;39.13;100459.13;5035082;28;20053;-74
2022/08/26 08:22:41;;;;;;;5.50;3.78;;;;;;;32.57;39.05;100455.41;5035102;28;20060;-74
2022/08/26 08:25:10;;;;;;;3.72;3.40;;;;;;;32.58;38.73;100454.16;5034362;28;20049;-75
2022/08/26 08:27:41;;;;;;;4.90;3.80;;;;;;;32.23;39.87;100459.28;5035867;28;20045;-75
2022/08/26 08:30:13;;;;;;;6.63;3.50;;;;;;;32.19;39.91;100456.53;5033507;28;20061;-74
2022/08/26 08:32:47;;;;;;;7.10;3.17;;;;;;;32.29;39.54;100458.38;5035089;28;20040;-74
2022/08/26 08:35:17;;;;;;;3.97;3.58;;;;;;;32.65;40.46;100454.00;5034972;28;20050;-75
2022/08/26 08:37:45;;;;;;;4.72;3.50;;;;;;;32.64;39.31;100455.25;5035321;28;20049;-75
2022/08/26 08:40:17;;;;;;;3.42;3.13;;;;;;;32.25;38.48;100454.00;5035046;28;20518;-74
2022/08/26 08:43:00;;;;;;;4.35;3.95;;;;;;;32.36;39.62;100445.31;5034653;28;20404;-75
2022/08/26 08:45:35;;;;;;;5.97;4.15;;;;;;;32.35;38.43;100449.38;5034598;28;20412;-75
2022/08/26 08:48:22;;;;;;;4.35;3.40;;;;;;;32.33;38.59;100449.78;5034922;28;20064;-74
2022/08/26 08:51:03;;;;;;;4.88;3.50;;;;;;;32.15;39.83;100441.66;5034660;28;20500;-75
2022/08/26 08:53:31;;;;;;;5.28;3.97;;;;;;;31.98;39.36;100444.41;5034150;28;20048;-75
2022/08/26 08:56:22;;;;;;;5.75;3.50;;;;;;;32.27;39.50;100438.19;5034353;28;20500;-75
2022/08/26 08:58:53;;;;;;;6.95;4.30;;;;;;;32.56;38.75;100442.50;5034668;28;20053;-74
2022/08/26 09:01:41;;;;;;;7.45;3.67;;;;;;;32.41;37.90;100442.78;5034531;28;20052;-75
2022/08/26 09:04:37;;;;;;;4.97;3.50;;;;;;;32.31;38.57;100438.13;5034282;28;20041;-75
2022/08/26 09:07:10;;;;;;;4.05;3.28;;;;;;;32.67;38.97;100430.94;5034205;28;20045;-74
2022/08/26 09:09:44;;;;;;;4.07;3.47;;;;;;;32.90;38.45;100427.19;5020357;28;20058;-74
2022/08/26 09:12:19;;;;;;;7.13;3.58;;;;;;;33.13;37.46;100431.13;5033983;28;20068;-75
2022/08/26 09:15:16;;;;;;;7.03;4.03;;;;;;;32.91;36.67;100427.97;5033047;28;20515;-75
2022/08/26 09:18:23;;;;;;;4.40;3.53;;;;;;;33.44;36.72;100421.50;5034021;28;20619;-74
2022/08/26 09:20:59;;;;;;;6.90;3.58;;;;;;;33.02;36.33;100428.56;5007119;28;20072;-75
2022/08/26 09:23:29;;;;;;;7.13;3.90;;;;;;;33.02;37.29;100417.22;5028181;28;20065;-74
2022/08/26 09:26:24;;;;;;;4.20;3.80;;;;;;;33.17;37.21;100425.41;5033748;28;20053;-75
2022/08/26 09:28:57;;;;;;;4.40;3.80;;;;;;;33.40;36.65;100421.59;5034157;28;20060;-75
2022/08/26 09:31:35;;;;;;;6.47;4.10;;;;;;;32.91;37.12;100423.13;5033328;28;20061;-76
2022/08/26 09:34:10;;;;;;;4.55;3.95;;;;;;;33.40;37.96;100424.41;5033752;28;20037;-75
2022/08/26 09:36:54;;;;;;;5.95;3.75;;;;;;;33.88;36.57;100418.34;5033716;28;20048;-75
2022/08/26 09:39:32;;;;;;;4.38;3.65;;;;;;;34.13;36.16;100411.22;5033368;28;20514;-75
2022/08/26 09:42:04;;;;;;;6.70;4.38;;;;;;;33.77;36.23;100408.09;5033574;28;20405;-75
2022/08/26 09:44:34;;;;;;;4.68;3.50;;;;;;;33.42;37.03;100410.59;5033326;28;20053;-75
2022/08/26 09:47:06;;;;;;;4.78;4.05;;;;;;;33.40;35.95;100407.41;5033229;28;20539;-75
2022/08/26 09:49:39;;;;;;;4.10;3.67;;;;;;;33.43;36.30;100406.50;5033098;28;20048;-76
2022/08/26 09:52:16;;;;;;;;;;;;;;;33.86;35.92;100404.63;5033552;28;20046;-74
2022/08/26 09:54:56;;;;;;;5.55;3.97;;;;;;;33.55;36.50;100407.06;5033671;28;19921;-75
2022/08/26 09:57:28;;;;;;;6.72;3.67;;;;;;;33.67;37.02;100400.66;5033404;28;20056;-75
2022/08/26 09:59:56;;;;;;;5.80;3.70;;;;;;;34.15;35.55;100397.34;5033363;28;20385;-75
2022/08/26 10:02:33;;;;;;;5.18;4.00;;;;;;;34.17;35.49;100400.56;5033432;28;20049;-75
2022/08/26 10:05:06;;;;;;;6.07;3.80;;;;;;;33.92;35.90;100402.03;5020238;28;20062;-76
2022/08/26 10:07:37;;;;;;;6.25;3.70;;;;;;;33.60;37.44;100395.19;5032748;28;20523;-75
2022/08/26 10:10:21;;;;;;;4.07;3.67;;;;;;;34.04;36.04;100392.81;5031746;28;20049;-75
2022/08/26 10:12:57;;;;;;;6.05;3.80;;;;;;;34.13;34.61;100391.34;5032985;28;20048;-76
2022/08/26 10:15:27;;;;;;;4.55;3.83;;;;;;;33.54;36.25;100385.63;5033193;28;20046;-75
2022/08/26 10:18:05;;;;;;;4.80;3.92;;;;;;;33.58;36.55;100377.81;5032650;28;20053;-75
2022/08/26 10:20:40;;;;;;;5.75;3.90;;;;;;;33.92;35.96;100385.00;5032899;28;20060;-75
2022/08/26 10:23:16;;;;;;;6.10;3.65;;;;;;;34.05;35.61;100387.91;5032526;28;20057;-75
2022/08/26 10:25:46;;;;;;;6.97;4.20;;;;;;;34.09;35.40;100382.13;5032196;28;20049;-75
2022/08/26 10:28:41;;;;;;;4.90;4.05;;;;;;;34.13;35.55;100368.63;5032655;28;20042;-75
2022/08/26 10:31:26;;;;;;;6.00;4.30;;;;;;;34.57;34.24;100369.00;5032426;28;20045;-75
2022/08/26 10:33:56;;;;;;;6.28;4.00;;;;;;;34.61;34.79;100371.72;5032506;28;20053;-75
2022/08/26 10:36:49;;;;;;;6.78;3.97;;;;;;;33.35;36.54;100371.88;5033178;28;20376;-75
2022/08/26 10:40:06;;;;;;;6.30;3.90;;;;;;;33.67;36.85;100365.84;5032989;28;20149;-75
2022/08/26 10:42:34;;;;;;;4.07;3.78;;;;;;;34.18;36.05;100366.06;5032697;28;20072;-75
2022/08/26 10:45:12;;;;;;;5.90;3.95;;;;;;;34.69;35.28;100363.75;5032401;28;20071;-76
2022/08/26 10:47:54;;;;;;;7.40;4.60;;;;;;;34.93;35.41;100361.34;5032240;28;20041;-75
2022/08/26 10:50:29;;;;;;;6.75;4.22;;;;;;;35.45;34.72;100351.97;5032063;28;20068;-76
2022/08/26 10:53:06;;;;;;;4.95;4.45;;;;;;;35.21;34.48;100352.34;5027830;28;20053;-75
2022/08/26 10:55:41;;;;;;;6.00;4.38;;;;;;;34.52;34.88;100358.16;5024726;28;20049;-76
2022/08/26 10:58:45;;;;;;;4.68;4.10;;;;;;;34.64;35.54;100359.44;5031968;28;20052;-75
2022/08/26 11:01:41;;;;;;;6.38;4.57;;;;;;;34.60;34.54;100357.97;5024807;28;20049;-75
2022/08/26 11:04:27;;;;;;;6.03;4.35;;;;;;;34.37;35.45;100348.47;5032195;28;20061;-76
2022/08/26 11:07:33;;;;;;;5.13;4.30;;;;;;;34.24;35.97;100342.75;5032026;28;20056;-76
2022/08/26 11:10:15;;;;;;;5.45;4.55;;;;;;;34.48;34.78;100345.28;5031974;28;20065;-75
2022/08/26 11:12:46;;;;;;;6.18;4.38;;;;;;;34.23;35.26;100335.50;5031741;28;20050;-75
2022/08/26 11:15:19;;;;;;;7.03;4.35;;;;;;;34.48;35.22;100336.78;5031636;28;20060;-75
2022/08/26 11:17:51;;;;;;;5.13;4.13;;;;;;;34.58;35.19;100339.31;5032170;28;20049;-76
2022/08/26 11:20:21;;;;;;;9.10;4.35;;;;;;;34.21;36.21;100338.00;5031911;28;20503;-75
2022/08/26 11:22:53;;;;;;;7.68;4.20;;;;;;;34.76;35.44;100337.97;5031657;28;20056;-75
2022/08/26 11:25:23;;;;;;;7.43;4.38;;;;;;;34.70;34.41;100340.56;5031402;28;20050;-76
2022/08/26 11:27:58;;;;;;;4.85;4.35;;;;;;;34.56;35.42;100335.31;5010678;28;20053;-75
2022/08/26 11:30:39;;;;;;;5.18;4.43;;;;;;;34.08;34.92;100333.09;4999130;28;20428;-75
2022/08/26 11:33:48;;;;;;;7.43;5.20;;;;;;;34.63;35.57;100328.63;4994199;28;20057;-75
2022/08/26 11:36:45;;;;;;;6.07;4.10;;;;;;;35.25;34.48;100330.28;5002097;28;20056;-74
2022/08/26 11:39:27;;;;;;;4.30;3.78;;;;;;;35.55;34.14;100328.03;5007769;28;20805;-75
2022/08/26 11:42:15;;;;;;;6.90;5.00;;;;;;;34.83;34.95;100325.53;5004269;28;20046;-80
2022/08/26 11:44:47;;;;;;;5.50;4.10;;;;;;;34.88;35.42;100321.34;5003109;28;20042;-80
2022/08/26 11:47:29;;;;;;;4.13;3.47;;;;;;;34.79;35.55;100319.97;5001967;28;20056;-80
2022/08/26 11:50:08;;;;;;;4.40;3.75;;;;;;;34.84;35.69;100310.13;5021158;28;20045;-80
2022/08/26 11:52:37;;;;;;;5.65;3.85;;;;;;;34.90;34.84;100313.97;5009217;28;20043;-80
2022/08/26 11:55:10;;;;;;;5.05;4.18;;;;;;;34.89;35.78;100314.41;5010330;28;20050;-80
2022/08/26 11:57:51;;;;;;;5.93;4.15;;;;;;;34.97;35.75;100312.91;5010179;28;20046;-80
2022/08/26 12:00:23;;;;;;;7.43;4.43;;;;;;;34.72;35.01;100303.19;5006796;28;20042;-79